createdAt,value
2023-02-22T00:01:28.203Z,88.47
2023-02-22T00:03:57.088Z,87.62
2023-02-22T00:06:31.263Z,87.03
2023-02-22T00:09:00.007Z,87.85
2023-02-22T00:11:28.943Z,88.59
2023-02-22T00:13:58.299Z,87.54
2023-02-22T00:16:27.322Z,88.47
2023-02-22T00:18:55.821Z,88.59
2023-02-22T00:21:24.395Z,88.19
2023-02-22T00:23:56.878Z,88.38
2023-02-22T00:26:26.889Z,88.03
2023-02-22T00:28:57.397Z,88.42
2023-02-22T00:31:26.101Z,88.00
2023-02-22T00:33:54.426Z,88.09
2023-02-22T00:36:23.531Z,87.70
2023-02-22T00:38:56.193Z,87.55
2023-02-22T00:41:25.717Z,88.25
2023-02-22T00:43:56.343Z,87.50
2023-02-22T00:46:24.172Z,86.94
2023-02-22T00:48:53.305Z,86.39
2023-02-22T00:51:22.600Z,87.80
2023-02-22T00:53:50.711Z,87.67
2023-02-22T00:56:20.282Z,87.00
2023-02-22T00:58:49.794Z,87.28
2023-02-22T01:01:18.720Z,87.00
2023-02-22T01:03:47.182Z,86.91
2023-02-22T01:06:15.362Z,87.22
2023-02-22T01:08:45.992Z,87.21
2023-02-22T01:11:17.865Z,87.69
2023-02-22T01:13:46.531Z,87.01
2023-02-22T01:16:16.385Z,86.42
2023-02-22T01:18:45.450Z,86.59
2023-02-22T01:21:16.717Z,87.05
2023-02-22T01:23:46.708Z,86.42
2023-02-22T01:26:14.977Z,87.19
2023-02-22T01:28:46.113Z,87.71
2023-02-22T01:31:19.137Z,86.18
2023-02-22T01:33:50.873Z,86.64
2023-02-22T01:36:19.430Z,87.72
2023-02-22T01:38:48.741Z,87.58
2023-02-22T01:41:18.444Z,88.14
2023-02-22T01:43:49.056Z,87.30
2023-02-22T01:46:26.022Z,87.65
2023-02-22T01:49:00.674Z,87.38
2023-02-22T01:51:32.340Z,87.18
2023-02-22T01:54:03.921Z,86.36
2023-02-22T01:56:37.593Z,86.10
2023-02-22T01:59:10.053Z,86.76
2023-02-22T02:02:00.739Z,86.79
2023-02-22T02:04:29.971Z,86.07
2023-02-22T02:07:03.892Z,86.35
2023-02-22T02:10:01.371Z,86.86
2023-02-22T02:12:33.424Z,86.33
2023-02-22T02:15:18.197Z,87.28
2023-02-22T02:17:47.974Z,87.79
2023-02-22T02:20:25.617Z,87.96
2023-02-22T02:23:01.163Z,88.69
2023-02-22T02:26:08.910Z,88.12
2023-02-22T02:29:03.193Z,88.19
2023-02-22T02:32:08.033Z,87.23
2023-02-22T02:34:48.541Z,86.96
2023-02-22T02:37:23.585Z,87.61
2023-02-22T02:39:57.436Z,87.71
2023-02-22T02:42:32.342Z,87.05
2023-02-22T02:45:13.875Z,87.93
2023-02-22T02:47:46.488Z,87.81
2023-02-22T02:50:27.751Z,86.40
2023-02-22T02:52:59.074Z,87.13
2023-02-22T02:55:32.055Z,86.66
2023-02-22T02:58:00.512Z,87.10
2023-02-22T03:00:39.272Z,86.57
2023-02-22T03:03:26.204Z,87.07
2023-02-22T03:06:26.562Z,87.79
2023-02-22T03:09:00.210Z,87.17
2023-02-22T03:11:31.681Z,87.23
2023-02-22T03:14:10.190Z,87.58
2023-02-22T03:16:48.180Z,87.66
2023-02-22T03:19:23.948Z,87.58
2023-02-22T03:22:02.733Z,87.94
2023-02-22T03:24:36.664Z,87.66
2023-02-22T03:27:09.479Z,87.78
2023-02-22T03:29:43.252Z,87.68
2023-02-22T03:32:17.693Z,87.48
2023-02-22T03:34:52.942Z,87.17
2023-02-22T03:37:27.028Z,87.58
2023-02-22T03:39:56.611Z,87.55
2023-02-22T03:42:32.990Z,86.85
2023-02-22T03:45:05.665Z,86.86
2023-02-22T03:47:42.126Z,86.97
2023-02-22T03:50:15.252Z,87.84
2023-02-22T03:52:48.349Z,87.36
2023-02-22T03:55:20.984Z,87.78
2023-02-22T03:57:56.225Z,88.72
2023-02-22T04:00:28.191Z,87.81
2023-02-22T04:02:56.759Z,88.04
2023-02-22T04:05:28.505Z,87.38
2023-02-22T04:08:02.473Z,88.36
2023-02-22T04:10:31.318Z,87.80
2023-02-22T04:12:59.684Z,87.13
2023-02-22T04:15:35.652Z,86.86
2023-02-22T04:18:04.584Z,87.91
2023-02-22T04:20:32.877Z,87.25
2023-02-22T04:23:05.173Z,87.43
2023-02-22T04:25:33.590Z,87.82
2023-02-22T04:28:03.806Z,87.97
2023-02-22T04:30:32.607Z,87.73
2023-02-22T04:33:00.906Z,87.94
2023-02-22T04:35:35.319Z,87.73
2023-02-22T04:38:05.232Z,88.05
2023-02-22T04:40:33.865Z,87.90
2023-02-22T04:43:05.781Z,87.96
2023-02-22T04:45:48.760Z,87.72
2023-02-22T04:48:16.966Z,87.88
2023-02-22T04:50:45.457Z,88.30
2023-02-22T04:53:15.107Z,87.60
2023-02-22T04:55:46.337Z,88.36
2023-02-22T04:58:16.216Z,88.33
2023-02-22T05:00:48.159Z,88.19
2023-02-22T05:03:20.463Z,88.92
2023-02-22T05:05:53.281Z,88.63
2023-02-22T05:08:25.171Z,88.65
2023-02-22T05:10:53.353Z,88.80
2023-02-22T05:13:21.833Z,89.05
2023-02-22T05:15:50.221Z,88.71
2023-02-22T05:18:22.074Z,90.17
2023-02-22T05:20:51.215Z,90.69
2023-02-22T05:23:19.546Z,90.90
2023-02-22T05:25:52.662Z,89.61
2023-02-22T05:28:23.444Z,89.63
2023-02-22T05:30:51.743Z,89.90
2023-02-22T05:33:20.616Z,89.90
2023-02-22T05:35:49.807Z,89.85
2023-02-22T05:38:21.803Z,89.41
2023-02-22T05:40:55.399Z,88.91
2023-02-22T05:43:24.653Z,89.11
2023-02-22T05:45:56.109Z,88.48
2023-02-22T05:48:27.101Z,89.31
2023-02-22T05:50:58.729Z,89.03
2023-02-22T05:53:28.634Z,88.52
2023-02-22T05:55:58.962Z,89.06
2023-02-22T05:58:28.518Z,88.19
2023-02-22T06:01:03.063Z,88.28
2023-02-22T06:03:33.249Z,89.32
2023-02-22T06:06:01.564Z,89.35
2023-02-22T06:08:29.924Z,88.68
2023-02-22T06:10:59.420Z,88.22
2023-02-22T06:13:30.108Z,88.52
2023-02-22T06:16:00.168Z,88.60
2023-02-22T06:18:32.008Z,88.88
2023-02-22T06:21:01.125Z,88.60
2023-02-22T06:23:32.562Z,89.22
2023-02-22T06:26:02.260Z,88.50
2023-02-22T06:28:31.770Z,88.87
2023-02-22T06:31:01.324Z,89.08
2023-02-22T06:33:33.708Z,89.34
2023-02-22T06:36:03.906Z,88.84
2023-02-22T06:38:34.929Z,88.37
2023-02-22T06:41:08.499Z,88.67
2023-02-22T06:43:36.284Z,88.85
2023-02-22T06:46:06.048Z,88.29
2023-02-22T06:48:34.379Z,88.30
2023-02-22T06:51:03.079Z,88.31
2023-02-22T06:53:31.700Z,87.88
2023-02-22T06:56:01.406Z,87.54
2023-02-22T06:58:34.277Z,88.24
2023-02-22T07:01:04.080Z,88.14
2023-02-22T07:03:34.933Z,87.49
2023-02-22T07:06:05.345Z,88.21
2023-02-22T07:08:36.216Z,87.81
2023-02-22T07:11:06.548Z,87.56
2023-02-22T07:13:41.523Z,87.46
2023-02-22T07:16:14.475Z,87.84
2023-02-22T07:18:42.681Z,88.75
2023-02-22T07:21:12.108Z,89.08
2023-02-22T07:23:42.138Z,89.39
2023-02-22T07:26:13.485Z,89.79
2023-02-22T07:28:43.028Z,89.00
2023-02-22T07:31:21.292Z,88.44
2023-02-22T07:33:52.211Z,88.87
2023-02-22T07:36:20.983Z,88.24
2023-02-22T07:38:51.066Z,88.25
2023-02-22T07:41:23.003Z,87.81
2023-02-22T07:43:53.756Z,87.54
2023-02-22T07:46:27.093Z,87.95
2023-02-22T07:48:55.846Z,88.62
2023-02-22T07:51:29.704Z,87.39
2023-02-22T07:53:59.372Z,87.26
2023-02-22T07:56:37.345Z,88.06
2023-02-22T07:59:18.675Z,87.24
2023-02-22T08:01:47.059Z,86.84
2023-02-22T08:04:16.285Z,85.83
2023-02-22T08:06:47.173Z,86.46
2023-02-22T08:09:15.036Z,86.00
2023-02-22T08:11:43.548Z,85.91
2023-02-22T08:14:12.879Z,86.20
2023-02-22T08:16:41.312Z,84.96
2023-02-22T08:19:10.199Z,84.72
2023-02-22T08:21:39.342Z,85.30
2023-02-22T08:24:07.829Z,84.33
2023-02-22T08:26:37.466Z,83.75
2023-02-22T08:29:07.537Z,83.36
2023-02-22T08:31:39.955Z,83.77
2023-02-22T08:34:08.304Z,82.87
2023-02-22T08:36:39.101Z,82.97
2023-02-22T08:39:06.984Z,82.72
2023-02-22T08:41:37.315Z,82.05
2023-02-22T08:44:08.254Z,82.03
2023-02-22T08:46:36.825Z,82.00
2023-02-22T08:49:08.944Z,81.29
2023-02-22T08:51:38.658Z,81.59
2023-02-22T08:54:10.283Z,81.09
2023-02-22T08:56:49.783Z,80.26
2023-02-22T08:59:19.518Z,79.66
2023-02-22T09:01:51.984Z,80.14
2023-02-22T09:04:23.908Z,80.97
2023-02-22T09:06:53.233Z,79.95
2023-02-22T09:09:24.168Z,80.56
2023-02-22T09:11:55.386Z,81.74
2023-02-22T09:14:24.658Z,82.95
2023-02-22T09:16:53.032Z,83.37
2023-02-22T09:19:24.530Z,83.99
2023-02-22T09:21:56.693Z,83.60
2023-02-22T09:24:26.147Z,83.06
2023-02-22T09:26:56.379Z,83.33
2023-02-22T09:29:28.600Z,81.49
2023-02-22T09:31:58.970Z,81.07
2023-02-22T09:34:30.409Z,81.18
2023-02-22T09:36:58.596Z,80.19
2023-02-22T09:39:29.283Z,80.47
2023-02-22T09:42:04.707Z,81.52
2023-02-22T09:44:42.341Z,81.40
2023-02-22T09:47:20.491Z,81.32
2023-02-22T09:50:04.685Z,80.64
2023-02-22T09:52:37.641Z,79.55
2023-02-22T09:55:11.287Z,79.40
2023-02-22T09:57:44.033Z,79.79
2023-02-22T10:00:20.939Z,79.15
2023-02-22T10:03:00.794Z,79.67
2023-02-22T10:05:37.600Z,78.33
2023-02-22T10:08:12.675Z,78.19
2023-02-22T10:10:46.231Z,78.34
2023-02-22T10:13:27.741Z,76.80
2023-02-22T10:16:01.503Z,76.54
2023-02-22T10:19:08.557Z,76.97
2023-02-22T10:21:57.840Z,76.05
2023-02-22T10:24:40.916Z,76.81
2023-02-22T10:27:22.300Z,75.61
2023-02-22T10:29:55.181Z,75.92
2023-02-22T10:32:31.383Z,75.88
2023-02-22T10:35:07.585Z,74.64
2023-02-22T10:37:38.660Z,76.59
2023-02-22T10:40:17.417Z,76.67
2023-02-22T10:42:46.985Z,76.40
2023-02-22T10:45:23.172Z,78.56
2023-02-22T10:47:55.617Z,78.02
2023-02-22T10:50:23.888Z,78.60
2023-02-22T10:52:59.388Z,78.48
2023-02-22T10:55:29.171Z,77.31
2023-02-22T10:58:04.827Z,77.88
2023-02-22T11:00:37.565Z,77.86
2023-02-22T11:03:21.119Z,76.16
2023-02-22T11:05:50.314Z,74.09
2023-02-22T11:08:26.863Z,73.49
2023-02-22T11:10:57.516Z,71.98
2023-02-22T11:13:28.408Z,73.07
2023-02-22T11:15:59.508Z,73.09
2023-02-22T11:18:34.116Z,72.14
2023-02-22T11:21:06.451Z,71.31
2023-02-22T11:23:37.796Z,71.41
2023-02-22T11:26:11.188Z,71.68
2023-02-22T11:28:49.277Z,73.39
2023-02-22T11:31:22.518Z,72.66
2023-02-22T11:36:38.277Z,73.00
2023-02-22T11:39:25.531Z,71.51
2023-02-22T11:41:56.515Z,70.43
2023-02-22T11:44:34.881Z,69.72
2023-02-22T11:47:07.042Z,68.64
2023-02-22T11:49:38.188Z,68.63
2023-02-22T11:52:17.981Z,68.28
2023-02-22T11:55:32.641Z,68.61
2023-02-22T11:58:29.964Z,69.60
2023-02-22T12:01:07.414Z,67.55
2023-02-22T12:04:25.423Z,66.62
2023-02-22T12:07:08.666Z,64.76
2023-02-22T12:09:43.708Z,63.23
2023-02-22T12:12:28.946Z,64.61
2023-02-22T12:15:06.465Z,65.59
2023-02-22T12:17:59.265Z,64.46
2023-02-22T12:20:41.938Z,63.41
2023-02-22T12:23:20.127Z,63.61
2023-02-22T12:25:59.436Z,63.79
2023-02-22T12:28:39.003Z,63.40
2023-02-22T12:31:23.013Z,62.18
2023-02-22T12:34:03.245Z,61.67
2023-02-22T12:36:42.780Z,63.42
2023-02-22T12:39:29.976Z,60.78
2023-02-22T12:42:03.582Z,62.98
2023-02-22T12:44:38.307Z,61.17
2023-02-22T12:47:10.112Z,60.09
2023-02-22T12:49:44.918Z,61.02
2023-02-22T12:52:22.653Z,62.57
2023-02-22T12:55:00.275Z,62.49
2023-02-22T12:57:39.668Z,60.82
2023-02-22T13:00:20.183Z,60.72
2023-02-22T13:02:58.954Z,61.25
2023-02-22T13:05:29.074Z,61.91
2023-02-22T13:08:13.443Z,59.89
2023-02-22T13:11:08.919Z,59.05
2023-02-22T13:13:44.618Z,60.72
2023-02-22T13:16:33.339Z,59.51
2023-02-22T13:19:09.583Z,59.29
2023-02-22T13:21:50.078Z,58.56
2023-02-22T13:24:25.099Z,56.86
2023-02-22T13:26:58.618Z,56.92
2023-02-22T13:29:33.162Z,55.69
2023-02-22T13:32:20.142Z,56.64
2023-02-22T13:35:03.243Z,55.63
2023-02-22T13:38:02.174Z,55.89
2023-02-22T13:41:04.565Z,55.28
2023-02-22T13:44:04.197Z,54.18
2023-02-22T13:47:02.756Z,53.75
2023-02-22T13:49:52.409Z,55.36
2023-02-22T13:52:23.404Z,56.26
2023-02-22T13:54:57.330Z,56.01
2023-02-22T13:57:29.312Z,54.43
2023-02-22T14:00:23.101Z,54.62
2023-02-22T14:03:06.722Z,53.73
2023-02-22T14:05:49.979Z,53.00
2023-02-22T14:08:42.022Z,52.70
2023-02-22T14:11:54.589Z,52.72
2023-02-22T14:14:24.122Z,52.74
2023-02-22T14:17:28.092Z,53.92
2023-02-22T14:20:32.333Z,53.20
2023-02-22T14:23:36.511Z,53.98
2023-02-22T14:26:15.483Z,52.71
2023-02-22T14:28:52.365Z,53.12
2023-02-22T14:31:35.483Z,52.12
2023-02-22T14:34:10.817Z,52.46
2023-02-22T14:36:50.907Z,52.69
2023-02-22T14:39:29.453Z,53.59
2023-02-22T14:42:01.771Z,54.03
2023-02-22T14:44:35.851Z,53.61
2023-02-22T14:47:08.329Z,54.04
2023-02-22T14:49:41.611Z,53.95
2023-02-22T14:52:20.539Z,53.24
2023-02-22T14:55:06.892Z,52.61
2023-02-22T14:57:45.120Z,52.52
2023-02-22T15:00:22.680Z,54.51
2023-02-22T15:02:57.532Z,55.06
2023-02-22T15:08:18.007Z,55.27
2023-02-22T15:10:49.689Z,54.41
2023-02-22T15:13:24.412Z,56.31
2023-02-22T15:16:02.116Z,56.15
2023-02-22T15:18:39.555Z,55.56
2023-02-22T15:21:13.233Z,55.17
2023-02-22T15:23:49.845Z,56.62
2023-02-22T15:26:26.975Z,56.68
2023-02-22T15:28:56.579Z,56.38
2023-02-22T15:31:33.666Z,55.65
2023-02-22T15:34:24.493Z,57.21
2023-02-22T15:36:56.456Z,57.23
2023-02-22T15:39:27.349Z,57.21
2023-02-22T15:42:25.051Z,56.71
2023-02-22T15:44:58.099Z,57.73
2023-02-22T15:47:32.088Z,58.42
2023-02-22T15:50:22.334Z,58.52
2023-02-22T15:53:03.685Z,58.72
2023-02-22T15:55:35.549Z,56.90
2023-02-22T15:58:24.197Z,55.96
2023-02-22T16:01:02.675Z,56.52
2023-02-22T16:03:44.235Z,57.69
2023-02-22T16:06:18.683Z,58.74
2023-02-22T16:08:55.227Z,58.61
2023-02-22T16:11:31.212Z,58.59
2023-02-22T16:14:05.010Z,59.53
2023-02-22T16:16:41.943Z,60.32
2023-02-22T16:19:28.896Z,60.48
2023-02-22T16:22:04.670Z,61.12
2023-02-22T16:24:35.816Z,61.37
2023-02-22T16:27:22.586Z,61.49
2023-02-22T16:30:33.376Z,62.21
2023-02-22T16:33:06.612Z,63.44
2023-02-22T16:35:37.901Z,63.20
2023-02-22T16:38:09.364Z,64.49
2023-02-22T16:40:44.784Z,64.64
2023-02-22T16:43:16.627Z,65.10
2023-02-22T16:45:46.817Z,65.08
2023-02-22T16:48:18.302Z,64.74
2023-02-22T16:50:51.224Z,65.47
2023-02-22T16:53:22.384Z,66.16
2023-02-22T16:56:00.056Z,66.23
2023-02-22T16:58:32.449Z,66.36
2023-02-22T17:01:05.122Z,66.68
2023-02-22T17:03:35.803Z,66.81
2023-02-22T17:06:06.665Z,66.64
2023-02-22T17:08:36.761Z,67.47
2023-02-22T17:11:08.724Z,67.61
2023-02-22T17:13:37.501Z,68.57
2023-02-22T17:16:08.818Z,68.40
2023-02-22T17:18:39.257Z,68.42
2023-02-22T17:21:08.423Z,68.42
2023-02-22T17:23:38.827Z,68.11
2023-02-22T17:26:07.942Z,68.17
2023-02-22T17:28:36.077Z,68.50
2023-02-22T17:31:11.771Z,69.16
2023-02-22T17:33:41.453Z,69.45
2023-02-22T17:36:17.317Z,69.80
2023-02-22T17:38:47.004Z,69.69
2023-02-22T17:41:14.991Z,69.74
2023-02-22T17:43:42.925Z,69.89
2023-02-22T17:46:12.566Z,70.21
2023-02-22T17:48:43.547Z,70.99
2023-02-22T17:51:13.128Z,71.21
2023-02-22T17:53:42.124Z,71.13
2023-02-22T17:56:16.260Z,72.13
2023-02-22T17:58:44.425Z,71.75
2023-02-22T18:01:21.782Z,71.73
2023-02-22T18:03:54.734Z,72.22
2023-02-22T18:06:27.080Z,71.73
2023-02-22T18:08:56.917Z,72.74
2023-02-22T18:11:26.666Z,73.16
2023-02-22T18:13:55.158Z,72.75
2023-02-22T18:16:27.004Z,72.73
2023-02-22T18:19:03.361Z,73.13
2023-02-22T18:21:35.198Z,71.77
2023-02-22T18:24:04.182Z,72.31
2023-02-22T18:26:34.576Z,73.30
2023-02-22T18:29:19.605Z,72.86
2023-02-22T18:31:50.194Z,73.25
2023-02-22T18:34:25.251Z,73.13
2023-02-22T18:36:53.879Z,73.94
2023-02-22T18:39:22.346Z,73.38
2023-02-22T18:41:54.542Z,73.73
2023-02-22T18:44:23.901Z,73.40
2023-02-22T18:46:53.814Z,73.47
2023-02-22T18:49:27.166Z,73.68
2023-02-22T18:51:56.063Z,74.15
2023-02-22T18:54:28.039Z,73.70
2023-02-22T18:56:56.817Z,73.44
2023-02-22T18:59:25.212Z,73.20
2023-02-22T19:01:53.554Z,72.91
2023-02-22T19:04:22.901Z,72.82
2023-02-22T19:06:51.055Z,73.31
2023-02-22T19:09:19.279Z,73.57
2023-02-22T19:11:53.309Z,75.74
2023-02-22T19:14:24.166Z,75.44
2023-02-22T19:16:56.630Z,75.81
2023-02-22T19:19:27.594Z,75.12
2023-02-22T19:21:56.729Z,75.81
2023-02-22T19:24:31.194Z,74.92
2023-02-22T19:27:07.581Z,75.44
2023-02-22T19:29:38.720Z,74.49
2023-02-22T19:32:07.195Z,75.13
2023-02-22T19:34:37.821Z,75.50
2023-02-22T19:37:12.535Z,76.12
2023-02-22T19:39:42.261Z,76.43
2023-02-22T19:42:11.271Z,76.90
2023-02-22T19:44:39.247Z,77.44
2023-02-22T19:47:10.500Z,77.67
2023-02-22T19:49:42.275Z,77.95
2023-02-22T19:52:10.651Z,77.99
2023-02-22T19:54:41.051Z,77.51
2023-02-22T19:57:09.878Z,78.24
2023-02-22T19:59:39.032Z,77.82
2023-02-22T20:02:15.205Z,78.05
2023-02-22T20:04:44.803Z,78.10
2023-02-22T20:07:14.423Z,78.00
2023-02-22T20:09:44.779Z,78.07
2023-02-22T20:12:15.878Z,78.07
2023-02-22T20:14:46.197Z,78.26
2023-02-22T20:17:15.207Z,78.93
2023-02-22T20:19:49.139Z,78.67
2023-02-22T20:22:20.585Z,78.82
2023-02-22T20:24:50.096Z,78.92
2023-02-22T20:27:22.426Z,79.29
2023-02-22T20:29:51.018Z,79.27
2023-02-22T20:32:20.705Z,79.49
2023-02-22T20:34:57.912Z,79.93
2023-02-22T20:37:26.235Z,80.12
2023-02-22T20:40:00.614Z,80.21
2023-02-22T20:42:28.875Z,80.20
2023-02-22T20:45:12.273Z,80.06
2023-02-22T20:47:43.347Z,79.89
2023-02-22T20:50:15.266Z,79.38
2023-02-22T20:52:45.006Z,79.23
2023-02-22T20:55:15.054Z,79.17
2023-02-22T20:57:45.730Z,79.14
2023-02-22T21:00:17.972Z,78.94
2023-02-22T21:02:46.820Z,78.85
2023-02-22T21:05:20.069Z,79.21
2023-02-22T21:07:47.999Z,78.87
2023-02-22T21:10:20.934Z,78.84
2023-02-22T21:12:52.248Z,78.54
2023-02-22T21:15:26.284Z,79.26
2023-02-22T21:17:56.167Z,78.84
2023-02-22T21:20:26.321Z,78.92
2023-02-22T21:22:55.823Z,78.30
2023-02-22T21:25:29.628Z,78.04
2023-02-22T21:27:57.869Z,78.36
2023-02-22T21:30:25.889Z,78.06
2023-02-22T21:32:56.271Z,77.86
2023-02-22T21:35:29.551Z,77.20
2023-02-22T21:37:59.406Z,77.57
2023-02-22T21:40:28.293Z,77.34
2023-02-22T21:42:57.008Z,77.50
2023-02-22T21:45:27.230Z,76.69
2023-02-22T21:47:57.476Z,76.05
2023-02-22T21:50:30.183Z,75.58
2023-02-22T21:53:00.144Z,75.36
2023-02-22T21:55:30.147Z,75.54
2023-02-22T21:57:58.257Z,75.47
2023-02-22T22:00:31.338Z,75.20
2023-02-22T22:03:07.866Z,74.47
2023-02-22T22:05:39.939Z,75.12
2023-02-22T22:08:08.338Z,75.36
2023-02-22T22:10:37.731Z,75.86
2023-02-22T22:13:09.097Z,76.03
2023-02-22T22:15:41.210Z,76.98
2023-02-22T22:18:09.579Z,76.55
2023-02-22T22:20:40.545Z,77.19
2023-02-22T22:23:09.807Z,77.48
2023-02-22T22:25:39.118Z,78.36
2023-02-22T22:28:16.630Z,77.37
2023-02-22T22:30:45.197Z,78.41
2023-02-22T22:33:17.895Z,77.41
2023-02-22T22:35:49.315Z,77.84
2023-02-22T22:38:39.140Z,77.23
2023-02-22T22:41:07.702Z,77.44
2023-02-22T22:43:38.615Z,77.66
2023-02-22T22:46:10.344Z,77.44
2023-02-22T22:48:40.910Z,77.16
2023-02-22T22:51:17.204Z,77.51
2023-02-22T22:53:49.257Z,77.18
2023-02-22T22:56:20.255Z,76.63
2023-02-22T22:58:52.153Z,77.21
2023-02-22T23:01:29.942Z,77.50
2023-02-22T23:04:02.303Z,77.44
2023-02-22T23:06:35.207Z,77.40
2023-02-22T23:09:11.104Z,77.50
2023-02-22T23:11:44.187Z,78.14
2023-02-22T23:14:14.908Z,77.41
2023-02-22T23:16:45.341Z,76.41
2023-02-22T23:19:15.735Z,77.87
2023-02-22T23:21:45.732Z,77.31
2023-02-22T23:24:16.653Z,77.38
2023-02-22T23:26:48.971Z,77.64
2023-02-22T23:29:23.381Z,77.18
2023-02-22T23:31:58.027Z,77.22
2023-02-22T23:34:30.495Z,76.60
2023-02-22T23:36:59.637Z,76.54
2023-02-22T23:39:36.183Z,77.36
2023-02-22T23:42:09.296Z,76.49
2023-02-22T23:44:39.739Z,76.37
2023-02-22T23:47:09.682Z,77.05
2023-02-22T23:49:38.491Z,77.53
2023-02-22T23:52:23.875Z,77.42
2023-02-22T23:54:53.777Z,77.88
2023-02-22T23:57:21.923Z,76.97
2023-02-22T23:59:53.329Z,77.58
